createdAt,value
2017-08-02T00:00:11.213Z,19.00
2017-08-02T00:02:38.674Z,18.27
2017-08-02T00:05:06.154Z,19.87
2017-08-02T00:07:33.641Z,17.97
2017-08-02T00:10:01.141Z,18.03
2017-08-02T00:12:28.599Z,18.50
2017-08-02T00:14:56.078Z,19.50
2017-08-02T00:17:23.561Z,20.27
2017-08-02T00:19:51.101Z,19.47
2017-08-02T00:22:18.585Z,20.70
2017-08-02T00:24:46.047Z,18.60
2017-08-02T00:27:13.542Z,18.57
2017-08-02T00:29:40.999Z,19.47
2017-08-02T00:32:08.453Z,20.33
2017-08-02T00:34:35.955Z,18.80
2017-08-02T00:37:03.414Z,22.07
2017-08-02T00:39:30.869Z,21.13
2017-08-02T00:41:58.458Z,20.00
2017-08-02T00:44:25.943Z,19.87
2017-08-02T00:46:53.390Z,20.97
2017-08-02T00:49:20.910Z,22.30
2017-08-02T00:51:48.364Z,23.27
2017-08-02T00:54:15.826Z,21.33
2017-08-02T00:56:43.309Z,22.07
2017-08-02T00:59:10.772Z,25.23
2017-08-02T01:01:38.244Z,23.43
2017-08-02T01:04:05.740Z,24.63
2017-08-02T01:06:33.226Z,26.67
2017-08-02T01:09:00.689Z,25.77
2017-08-02T01:11:28.155Z,25.70
2017-08-02T01:13:55.663Z,24.97
2017-08-02T01:16:23.141Z,24.77
2017-08-02T01:18:50.723Z,26.30
2017-08-02T01:21:18.174Z,26.00
2017-08-02T01:23:45.643Z,24.57
2017-08-02T01:26:13.142Z,27.43
2017-08-02T01:28:40.622Z,27.40
2017-08-02T01:31:08.086Z,27.80
2017-08-02T01:33:35.587Z,27.17
2017-08-02T01:36:03.815Z,28.50
2017-08-02T01:38:31.278Z,26.50
2017-08-02T01:40:58.754Z,27.07
2017-08-02T01:43:26.206Z,29.07
2017-08-02T01:45:53.709Z,29.97
2017-08-02T01:48:21.435Z,27.90
2017-08-02T01:50:48.890Z,31.80
2017-08-02T01:53:16.818Z,28.97
2017-08-02T01:55:44.266Z,30.37
2017-08-02T01:58:11.717Z,28.23
2017-08-02T02:00:39.211Z,30.47
2017-08-02T02:03:06.674Z,29.40
2017-08-02T02:05:34.142Z,30.57
2017-08-02T02:08:01.628Z,30.50
2017-08-02T02:10:29.085Z,30.83
2017-08-02T02:12:56.533Z,33.10
2017-08-02T02:15:24.017Z,29.87
2017-08-02T02:17:52.238Z,33.07
2017-08-02T02:20:19.749Z,30.50
2017-08-02T02:22:47.202Z,30.37
2017-08-02T02:25:15.426Z,31.53
2017-08-02T02:27:42.906Z,30.20
2017-08-02T02:30:10.363Z,31.77
2017-08-02T02:32:37.863Z,29.27
2017-08-02T02:35:06.082Z,29.83
2017-08-02T02:37:33.543Z,27.80
2017-08-02T02:40:01.131Z,31.30
2017-08-02T02:42:28.660Z,30.80
2017-08-02T02:44:56.117Z,31.07
2017-08-02T02:47:23.617Z,28.63
2017-08-02T02:49:51.074Z,30.53
2017-08-02T02:52:18.533Z,27.00
2017-08-02T02:54:46.789Z,26.43
2017-08-02T02:57:14.260Z,26.53
2017-08-02T02:59:41.722Z,26.10
2017-08-02T03:02:09.202Z,25.57
2017-08-02T03:04:37.418Z,24.70
2017-08-02T03:07:04.921Z,24.77
2017-08-02T03:09:32.389Z,24.60
2017-08-02T03:11:59.861Z,24.73
2017-08-02T03:14:27.323Z,24.90
2017-08-02T03:16:54.810Z,24.40
2017-08-02T03:19:22.270Z,24.67
2017-08-02T03:21:49.753Z,24.00
2017-08-02T03:24:17.229Z,24.50
2017-08-02T03:26:45.483Z,24.43
2017-08-02T03:29:12.971Z,23.50
2017-08-02T03:31:41.231Z,26.03
2017-08-02T03:34:08.737Z,23.57
2017-08-02T03:36:36.194Z,24.80
2017-08-02T03:39:03.679Z,24.97
2017-08-02T03:41:31.157Z,22.50
2017-08-02T03:43:58.662Z,24.13
2017-08-02T03:46:26.118Z,24.00
2017-08-02T03:48:53.574Z,24.10
2017-08-02T03:51:21.096Z,25.70
2017-08-02T03:53:48.557Z,23.97
2017-08-02T03:56:16.021Z,24.93
2017-08-02T03:58:44.290Z,25.30
2017-08-02T04:01:11.751Z,24.77
2017-08-02T04:03:39.214Z,25.20
2017-08-02T04:06:07.462Z,24.57
2017-08-02T04:08:35.035Z,24.57
2017-08-02T04:11:02.486Z,25.30
2017-08-02T04:13:30.062Z,25.47
2017-08-02T04:15:57.541Z,26.60
2017-08-02T04:18:25.762Z,23.47
2017-08-02T04:20:53.243Z,26.73
2017-08-02T04:23:20.701Z,26.80
2017-08-02T04:25:48.178Z,25.43
2017-08-02T04:28:16.405Z,27.03
2017-08-02T04:30:43.894Z,27.40
2017-08-02T04:33:11.354Z,25.77
2017-08-02T04:35:38.821Z,26.83
2017-08-02T04:38:06.380Z,27.63
2017-08-02T04:40:33.829Z,26.53
2017-08-02T04:43:01.317Z,27.23
2017-08-02T04:45:28.786Z,29.17
2017-08-02T04:47:56.259Z,29.83
2017-08-02T04:50:23.743Z,29.47
2017-08-02T04:52:51.217Z,27.57
2017-08-02T04:55:18.687Z,28.80
2017-08-02T04:57:46.153Z,28.33
2017-08-02T05:00:13.693Z,29.10
2017-08-02T05:02:41.145Z,30.73
2017-08-02T05:05:08.623Z,28.07
2017-08-02T05:07:36.110Z,30.20
2017-08-02T05:10:03.590Z,28.90
2017-08-02T05:12:31.062Z,28.20
2017-08-02T05:14:58.530Z,30.63
2017-08-02T05:17:26.002Z,32.10
2017-08-02T05:19:53.479Z,32.27
2017-08-02T05:22:20.981Z,30.90
2017-08-02T05:24:48.441Z,30.33
2017-08-02T05:27:15.901Z,30.07
2017-08-02T05:29:43.417Z,29.00
2017-08-02T05:32:10.882Z,29.27
2017-08-02T05:34:38.357Z,27.93
2017-08-02T05:37:06.038Z,28.43
2017-08-02T05:39:33.497Z,27.63
2017-08-02T05:42:00.963Z,27.70
2017-08-02T05:44:28.437Z,28.17
2017-08-02T05:46:55.894Z,27.93
2017-08-02T05:49:23.372Z,28.50
2017-08-02T05:51:50.882Z,28.80
2017-08-02T05:54:18.339Z,30.20
2017-08-02T05:56:45.810Z,29.23
2017-08-02T05:59:13.300Z,28.63
2017-08-02T06:01:40.756Z,32.03
2017-08-02T06:04:08.259Z,29.10
2017-08-02T06:06:35.719Z,28.87
2017-08-02T06:09:03.177Z,25.80
2017-08-02T06:11:30.699Z,28.70
2017-08-02T06:13:58.155Z,29.20
2017-08-02T06:16:25.609Z,31.40
2017-08-02T06:18:53.087Z,30.23
2017-08-02T06:21:21.306Z,30.30
2017-08-02T06:23:48.787Z,30.47
2017-08-02T06:26:16.280Z,28.80
2017-08-02T06:28:43.799Z,32.83
2017-08-02T06:31:11.290Z,31.40
2017-08-02T06:33:38.765Z,33.80
2017-08-02T06:36:06.295Z,33.20
2017-08-02T06:38:33.747Z,34.10
2017-08-02T06:41:01.201Z,34.73
2017-08-02T06:43:28.706Z,32.93
2017-08-02T06:45:56.162Z,32.77
2017-08-02T06:48:24.427Z,32.50
2017-08-02T06:50:51.925Z,33.33
2017-08-02T06:53:19.387Z,33.40
2017-08-02T06:55:46.860Z,34.90
2017-08-02T06:58:14.347Z,38.07
2017-08-02T07:00:41.802Z,37.83
2017-08-02T07:03:09.278Z,38.63
2017-08-02T07:05:36.758Z,40.33
2017-08-02T07:08:04.229Z,38.60
2017-08-02T07:10:31.721Z,39.40
2017-08-02T07:12:59.212Z,38.17
2017-08-02T07:15:27.465Z,37.87
2017-08-02T07:17:54.919Z,37.17
2017-08-02T07:20:22.489Z,33.57
2017-08-02T07:22:49.975Z,34.47
2017-08-02T07:25:17.425Z,33.67
2017-08-02T07:27:44.881Z,33.07
2017-08-02T07:30:12.373Z,33.70
2017-08-02T07:32:39.825Z,32.93
2017-08-02T07:35:07.301Z,35.17
2017-08-02T07:37:34.807Z,30.80
2017-08-02T07:40:02.274Z,33.30
2017-08-02T07:42:29.724Z,30.27
2017-08-02T07:44:57.985Z,32.13
2017-08-02T07:47:25.482Z,31.17
2017-08-02T07:49:52.989Z,31.73
2017-08-02T07:52:20.474Z,28.27
2017-08-02T07:54:47.961Z,24.40
2017-08-02T07:57:15.422Z,24.73
2017-08-02T07:59:42.908Z,24.20
2017-08-02T08:02:10.362Z,25.00
2017-08-02T08:04:37.845Z,24.20
2017-08-02T08:07:05.304Z,20.10
2017-08-02T08:09:32.762Z,18.53
2017-08-02T08:12:00.243Z,13.20
2017-08-02T08:14:27.703Z,11.57
2017-08-02T08:16:55.941Z,12.67
2017-08-02T08:19:23.727Z,10.23
2017-08-02T08:21:51.211Z,12.33
2017-08-02T08:24:18.759Z,12.37
2017-08-02T08:26:46.305Z,10.23
2017-08-02T08:29:13.805Z,11.47
2017-08-02T08:31:41.278Z,10.67
2017-08-02T08:34:08.742Z,11.00
2017-08-02T08:36:36.226Z,7.50
2017-08-02T08:39:03.683Z,7.60
2017-08-02T08:41:31.154Z,8.07
2017-08-02T08:43:58.710Z,7.57
2017-08-02T08:46:27.335Z,8.53
2017-08-02T08:48:56.205Z,6.80
2017-08-02T08:51:25.214Z,7.37
2017-08-02T08:53:53.609Z,8.13
2017-08-02T08:56:22.917Z,7.67
2017-08-02T08:58:51.439Z,6.63
2017-08-02T09:01:19.516Z,4.57
2017-08-02T09:03:47.510Z,3.63
2017-08-02T09:06:15.449Z,3.80
2017-08-02T09:08:43.622Z,3.40
2017-08-02T09:11:11.505Z,3.80
2017-08-02T09:13:39.657Z,2.57
2017-08-02T09:16:08.329Z,2.57
2017-08-02T09:18:36.756Z,2.57
2017-08-02T09:21:04.291Z,3.20
2017-08-02T09:23:31.755Z,2.93
2017-08-02T09:25:59.257Z,2.90
2017-08-02T09:28:26.710Z,2.70
2017-08-02T09:30:54.258Z,2.90
2017-08-02T09:33:21.714Z,3.83
2017-08-02T09:35:49.182Z,2.53
2017-08-02T09:38:16.658Z,2.77
2017-08-02T09:40:44.105Z,2.37
2017-08-02T09:43:11.563Z,2.27
2017-08-02T09:45:39.029Z,2.00
2017-08-02T09:48:06.497Z,2.00
2017-08-02T09:50:34.159Z,2.77
2017-08-02T09:53:01.634Z,2.30
2017-08-02T09:55:29.085Z,2.47
2017-08-02T09:57:56.588Z,2.20
2017-08-02T10:00:24.049Z,2.37
2017-08-02T10:02:51.521Z,2.30
2017-08-02T10:05:18.999Z,2.20
2017-08-02T10:07:46.465Z,2.03
2017-08-02T10:10:13.958Z,1.77
2017-08-02T10:12:41.530Z,2.43
2017-08-02T10:15:09.037Z,2.10
2017-08-02T10:17:36.587Z,1.77
2017-08-02T10:20:04.170Z,2.20
2017-08-02T10:22:33.002Z,2.33
2017-08-02T10:25:00.596Z,1.93
2017-08-02T10:27:28.157Z,2.40
2017-08-02T10:29:59.806Z,2.60
2017-08-02T10:32:27.353Z,2.77
2017-08-02T10:34:54.896Z,3.00
2017-08-02T10:37:22.416Z,3.10
2017-08-02T10:39:49.931Z,2.93
2017-08-02T10:42:17.394Z,2.80
2017-08-02T10:44:44.873Z,2.10
2017-08-02T10:47:12.367Z,2.30
2017-08-02T10:49:39.897Z,2.77
2017-08-02T10:52:07.458Z,3.40
2017-08-02T10:54:34.942Z,2.87
2017-08-02T10:57:02.436Z,2.93
2017-08-02T10:59:29.954Z,1.83
2017-08-02T11:01:57.469Z,2.20
2017-08-02T11:04:24.994Z,2.20
2017-08-02T11:06:52.531Z,1.90
2017-08-02T11:09:20.041Z,2.13
2017-08-02T11:11:47.542Z,1.73
2017-08-02T11:14:15.110Z,1.77
2017-08-02T11:16:42.666Z,2.07
2017-08-02T11:19:10.186Z,1.30
2017-08-02T11:21:37.765Z,1.53
2017-08-02T11:24:05.274Z,1.73
2017-08-02T11:26:32.766Z,1.63
2017-08-02T11:31:51.892Z,1.60
2017-08-02T11:34:31.244Z,1.50
2017-08-02T11:39:40.355Z,1.10
2017-08-02T11:42:07.899Z,1.47
2017-08-02T11:44:35.425Z,1.37
2017-08-02T11:47:03.062Z,1.17
2017-08-02T11:49:30.648Z,1.30
2017-08-02T11:51:58.253Z,1.10
2017-08-02T11:54:25.778Z,1.20
2017-08-02T11:56:53.290Z,1.20
2017-08-02T11:59:20.816Z,0.90
2017-08-02T12:01:48.337Z,1.30
2017-08-02T12:04:15.843Z,0.97
2017-08-02T12:06:43.384Z,1.10
2017-08-02T12:09:11.028Z,0.97
2017-08-02T12:11:38.527Z,0.90
2017-08-02T12:14:06.089Z,1.00
2017-08-02T12:16:33.684Z,1.23
2017-08-02T12:19:01.229Z,1.50
2017-08-02T12:21:28.871Z,1.37
2017-08-02T12:23:56.377Z,1.23
2017-08-02T12:26:23.993Z,1.10
2017-08-02T12:28:51.526Z,1.07
2017-08-02T12:31:19.043Z,1.20
2017-08-02T12:33:46.586Z,1.10
2017-08-02T12:36:14.067Z,1.30
2017-08-02T12:38:41.578Z,1.20
2017-08-02T12:41:09.063Z,1.40
2017-08-02T12:43:36.602Z,1.20
2017-08-02T12:46:04.947Z,1.50
2017-08-02T12:48:32.459Z,1.50
2017-08-02T12:50:59.997Z,1.70
2017-08-02T12:53:27.499Z,1.70
2017-08-02T12:55:55.040Z,1.47
2017-08-02T12:58:22.560Z,1.60
2017-08-02T13:00:50.051Z,1.90
2017-08-02T13:03:17.561Z,1.90
2017-08-02T13:05:45.138Z,1.70
2017-08-02T13:08:12.786Z,1.97
2017-08-02T13:10:40.282Z,1.50
2017-08-02T13:13:07.756Z,2.47
2017-08-02T13:15:35.274Z,2.00
2017-08-02T13:18:03.094Z,1.63
2017-08-02T13:20:30.592Z,1.60
2017-08-02T13:22:58.176Z,1.90
2017-08-02T13:25:25.750Z,2.07
2017-08-02T13:27:53.242Z,1.87
2017-08-02T13:30:20.758Z,2.60
2017-08-02T13:32:48.283Z,3.17
2017-08-02T13:35:15.784Z,3.23
2017-08-02T13:37:43.343Z,2.50
2017-08-02T13:40:10.874Z,2.33
2017-08-02T13:42:38.370Z,2.53
2017-08-02T13:45:05.899Z,3.17
2017-08-02T13:47:33.393Z,2.57
2017-08-02T13:50:00.951Z,2.13
2017-08-02T13:52:28.451Z,2.80
2017-08-02T13:54:55.958Z,2.50
2017-08-02T13:57:23.475Z,2.90
2017-08-02T13:59:51.038Z,2.27
2017-08-02T14:02:18.548Z,2.17
2017-08-02T14:04:46.005Z,2.37
2017-08-02T14:07:13.516Z,2.60
2017-08-02T14:09:41.009Z,2.80
2017-08-02T14:12:08.545Z,2.37
2017-08-02T14:14:36.001Z,2.93
2017-08-02T14:17:03.496Z,2.57
2017-08-02T14:19:31.080Z,3.23
2017-08-02T14:21:58.546Z,2.77
2017-08-02T14:24:26.056Z,2.70
2017-08-02T14:26:53.549Z,2.97
2017-08-02T14:29:21.057Z,2.73
2017-08-02T14:31:48.526Z,2.83
2017-08-02T14:34:16.054Z,3.50
2017-08-02T14:36:43.593Z,3.67
2017-08-02T14:39:11.077Z,2.43
2017-08-02T14:41:38.571Z,3.30
2017-08-02T14:44:06.149Z,3.47
2017-08-02T14:46:33.723Z,4.20
2017-08-02T14:49:01.264Z,3.57
2017-08-02T14:51:28.757Z,3.30
2017-08-02T14:53:56.218Z,3.57
2017-08-02T14:56:23.730Z,3.97
2017-08-02T14:59:06.756Z,3.90
2017-08-02T15:04:45.053Z,4.37
2017-08-02T15:10:06.630Z,3.92
2017-08-02T15:12:34.145Z,3.33
2017-08-02T15:15:01.656Z,3.70
2017-08-02T15:17:29.150Z,3.73
2017-08-02T15:19:56.686Z,3.77
2017-08-02T15:22:24.166Z,4.37
2017-08-02T15:24:51.676Z,4.37
2017-08-02T15:27:19.182Z,4.17
2017-08-02T15:29:46.653Z,4.27
2017-08-02T15:32:14.111Z,3.67
2017-08-02T15:34:41.610Z,4.37
2017-08-02T15:37:09.075Z,3.70
2017-08-02T15:39:36.549Z,4.07
2017-08-02T15:42:04.018Z,3.70
2017-08-02T15:44:31.514Z,4.13
2017-08-02T15:46:58.962Z,3.40
2017-08-02T15:49:26.431Z,3.90
2017-08-02T15:51:53.922Z,3.83
2017-08-02T15:54:21.387Z,3.50
2017-08-02T15:56:48.839Z,3.20
2017-08-02T15:59:16.313Z,3.60
2017-08-02T16:01:43.777Z,3.40
2017-08-02T16:04:11.266Z,3.33
2017-08-02T16:06:38.733Z,3.33
2017-08-02T16:09:06.219Z,3.90
2017-08-02T16:11:33.672Z,3.63
2017-08-02T16:14:01.144Z,4.10
2017-08-02T16:16:28.616Z,3.67
2017-08-02T16:18:56.114Z,3.93
2017-08-02T16:21:23.568Z,2.57
2017-08-02T16:23:51.036Z,4.13
2017-08-02T16:26:18.522Z,5.10
2017-08-02T16:28:45.979Z,4.67
2017-08-02T16:31:13.472Z,5.53
2017-08-02T16:33:40.930Z,6.43
2017-08-02T16:36:08.389Z,6.13
2017-08-02T16:38:35.930Z,6.43
2017-08-02T16:41:03.385Z,6.30
2017-08-02T16:43:30.837Z,6.47
2017-08-02T16:45:58.346Z,7.20
2017-08-02T16:48:25.822Z,6.10
2017-08-02T16:50:53.299Z,6.07
2017-08-02T16:53:20.742Z,6.17
2017-08-02T16:55:48.237Z,5.80
2017-08-02T16:58:15.754Z,5.60
2017-08-02T17:00:43.219Z,4.87
2017-08-02T17:03:10.661Z,7.23
2017-08-02T17:05:38.236Z,6.63
2017-08-02T17:08:05.698Z,6.53
2017-08-02T17:10:33.523Z,6.23
2017-08-02T17:13:01.262Z,5.93
2017-08-02T17:15:29.140Z,5.10
2017-08-02T17:17:56.592Z,5.00
2017-08-02T17:20:24.277Z,5.40
2017-08-02T17:22:52.077Z,5.77
2017-08-02T17:25:20.187Z,5.27
2017-08-02T17:27:48.023Z,6.23
2017-08-02T17:30:15.906Z,5.07
2017-08-02T17:32:43.467Z,5.73
2017-08-02T17:35:11.333Z,5.53
2017-08-02T17:37:39.344Z,5.00
2017-08-02T17:40:07.508Z,5.67
2017-08-02T17:42:34.948Z,5.37
2017-08-02T17:45:02.428Z,5.10
2017-08-02T17:47:29.878Z,5.07
2017-08-02T17:49:57.370Z,5.53
2017-08-02T17:52:24.823Z,5.37
2017-08-02T17:54:52.312Z,5.00
2017-08-02T17:57:19.781Z,6.03
2017-08-02T17:59:47.309Z,6.20
2017-08-02T18:02:14.766Z,6.03
2017-08-02T18:04:42.301Z,6.10
2017-08-02T18:07:09.802Z,6.60
2017-08-02T18:09:37.259Z,6.50
2017-08-02T18:12:05.566Z,6.60
2017-08-02T18:14:33.022Z,6.33
2017-08-02T18:17:00.485Z,7.30
2017-08-02T18:19:27.993Z,5.97
2017-08-02T18:21:55.486Z,6.90
2017-08-02T18:24:22.986Z,5.67
2017-08-02T18:26:50.491Z,6.23
2017-08-02T18:29:17.982Z,6.20
2017-08-02T18:31:45.429Z,6.73
2017-08-02T18:34:13.276Z,5.63
2017-08-02T18:36:40.729Z,5.90
2017-08-02T18:39:08.181Z,5.97
2017-08-02T18:41:35.797Z,6.67
2017-08-02T18:44:03.476Z,6.07
2017-08-02T18:46:31.628Z,6.37
2017-08-02T18:48:59.326Z,6.77
2017-08-02T18:51:27.034Z,5.70
2017-08-02T18:53:54.733Z,5.10
2017-08-02T18:56:22.194Z,5.90
2017-08-02T18:58:49.688Z,6.63
2017-08-02T19:01:17.466Z,5.33
2017-08-02T19:03:45.285Z,5.07
2017-08-02T19:06:13.169Z,5.50
2017-08-02T19:08:40.685Z,4.97
2017-08-02T19:11:08.674Z,6.10
2017-08-02T19:13:36.413Z,6.07
2017-08-02T19:16:04.830Z,4.97
2017-08-02T19:18:32.901Z,4.83
2017-08-02T19:21:00.387Z,5.20
2017-08-02T19:23:27.857Z,4.80
2017-08-02T19:25:55.301Z,5.30
2017-08-02T19:28:22.807Z,4.97
2017-08-02T19:30:50.318Z,4.43
2017-08-02T19:33:17.800Z,4.80
2017-08-02T19:35:46.133Z,4.53
2017-08-02T19:38:14.289Z,4.87
2017-08-02T19:40:41.869Z,4.40
2017-08-02T19:43:09.372Z,4.30
2017-08-02T19:45:37.102Z,5.43
2017-08-02T19:48:04.679Z,4.27
2017-08-02T19:50:32.373Z,4.80
2017-08-02T19:53:00.021Z,5.20
2017-08-02T19:55:27.588Z,4.60
2017-08-02T19:57:55.153Z,5.67
2017-08-02T20:00:22.625Z,5.40
2017-08-02T20:02:50.105Z,6.20
2017-08-02T20:05:17.609Z,6.13
2017-08-02T20:07:46.242Z,6.47
2017-08-02T20:10:13.689Z,8.40
2017-08-02T20:12:41.192Z,8.00
2017-08-02T20:15:08.642Z,7.73
2017-08-02T20:17:36.094Z,7.70
2017-08-02T20:20:03.574Z,8.57
2017-08-02T20:22:31.081Z,8.50
2017-08-02T20:24:58.520Z,8.83
2017-08-02T20:27:25.995Z,10.03
2017-08-02T20:29:53.515Z,8.00
2017-08-02T20:32:20.985Z,9.90
2017-08-02T20:34:48.445Z,8.37
2017-08-02T20:37:15.934Z,8.80
2017-08-02T20:39:43.422Z,9.63
2017-08-02T20:42:10.917Z,8.30
2017-08-02T20:44:38.385Z,9.27
2017-08-02T20:47:05.858Z,9.27
2017-08-02T20:49:33.342Z,8.20
2017-08-02T20:52:00.788Z,8.77
2017-08-02T20:54:28.286Z,9.20
2017-08-02T20:56:55.757Z,9.90
2017-08-02T20:59:23.297Z,10.20
2017-08-02T21:01:50.799Z,9.00
2017-08-02T21:04:18.249Z,10.10
2017-08-02T21:06:45.733Z,10.00
2017-08-02T21:09:13.199Z,9.00
2017-08-02T21:11:40.649Z,9.60
2017-08-02T21:14:08.124Z,10.13
2017-08-02T21:16:36.381Z,9.27
2017-08-02T21:19:03.904Z,8.67
2017-08-02T21:21:31.358Z,10.43
2017-08-02T21:23:58.836Z,10.10
2017-08-02T21:26:26.333Z,10.03
2017-08-02T21:28:53.808Z,9.97
2017-08-02T21:31:21.271Z,12.10
2017-08-02T21:33:48.754Z,12.53
2017-08-02T21:36:16.225Z,10.47
2017-08-02T21:38:43.717Z,11.50
2017-08-02T21:41:11.174Z,11.20
2017-08-02T21:43:38.645Z,12.03
2017-08-02T21:46:06.135Z,12.53
2017-08-02T21:48:33.597Z,11.90
2017-08-02T21:51:01.086Z,13.03
2017-08-02T21:53:28.546Z,13.60
2017-08-02T21:55:56.006Z,13.40
2017-08-02T21:58:23.517Z,13.90
2017-08-02T22:00:51.192Z,13.73
2017-08-02T22:03:18.658Z,13.40
2017-08-02T22:05:46.153Z,11.23
2017-08-02T22:08:13.590Z,10.87
2017-08-02T22:10:41.087Z,10.70
2017-08-02T22:13:08.556Z,13.33
2017-08-02T22:15:36.067Z,11.10
2017-08-02T22:18:03.527Z,11.43
2017-08-02T22:20:31.013Z,11.63
2017-08-02T22:22:59.263Z,11.90
2017-08-02T22:25:26.718Z,12.43
2017-08-02T22:27:54.170Z,12.60
2017-08-02T22:30:21.649Z,12.03
2017-08-02T22:32:49.123Z,11.70
2017-08-02T22:35:17.415Z,11.90
2017-08-02T22:37:44.875Z,13.23
2017-08-02T22:40:12.371Z,12.00
2017-08-02T22:42:39.858Z,13.20
2017-08-02T22:45:07.334Z,13.70
2017-08-02T22:47:34.837Z,12.57
2017-08-02T22:50:02.322Z,13.60
2017-08-02T22:52:29.787Z,13.73
2017-08-02T22:54:57.269Z,12.17
2017-08-02T22:57:25.485Z,12.70
2017-08-02T22:59:52.949Z,13.47
2017-08-02T23:02:20.432Z,13.60
2017-08-02T23:04:47.882Z,15.27
2017-08-02T23:07:15.346Z,13.60
2017-08-02T23:09:42.918Z,12.90
2017-08-02T23:12:10.382Z,15.57
2017-08-02T23:14:37.844Z,15.00
2017-08-02T23:17:05.351Z,14.50
2017-08-02T23:19:32.831Z,15.00
2017-08-02T23:22:00.287Z,14.73
2017-08-02T23:24:27.761Z,11.93
2017-08-02T23:26:55.268Z,14.13
2017-08-02T23:29:22.718Z,13.43
2017-08-02T23:31:50.206Z,14.57
2017-08-02T23:34:17.671Z,11.83
2017-08-02T23:36:45.138Z,14.37
2017-08-02T23:39:12.626Z,14.20
2017-08-02T23:41:40.098Z,15.03
2017-08-02T23:44:07.557Z,14.40
2017-08-02T23:46:35.044Z,13.83
2017-08-02T23:49:02.512Z,12.90
2017-08-02T23:51:29.971Z,14.37
2017-08-02T23:53:57.457Z,13.40
2017-08-02T23:56:24.911Z,11.57
2017-08-02T23:58:52.401Z,13.27
